Time;durP1;ratioP1;P1;durP2;ratioP2;P2;SDS_P1;SDS_P2;PMS_P1;PMS_P2;Temp;Humidity;BMP_temperature;BMP_pressure;BME280_temperature;BME280_humidity;BME280_pressure;Samples;Min_cycle;Max_cycle;Signal;HPM_P1;HPM_P2
2023/01/21 00:00:06;;;;;;;92.60;47.10;;;-0.60;99.90;;;;;;5021861;28;20037;-73
2023/01/21 00:02:32;;;;;;;89.00;43.33;;;-0.60;99.90;;;;;;5035325;28;20044;-74
2023/01/21 00:04:58;;;;;;;93.93;47.47;;;-0.60;99.90;;;;;;5034790;28;20040;-73
2023/01/21 00:07:24;;;;;;;81.93;41.83;;;-0.60;99.90;;;;;;5022402;28;20036;-74
2023/01/21 00:09:51;;;;;;;87.13;42.60;;;-0.60;99.90;;;;;;5023316;28;20036;-74
2023/01/21 00:12:17;;;;;;;84.33;40.53;;;-0.60;99.90;;;;;;5034624;28;20036;-74
2023/01/21 00:14:43;;;;;;;82.13;42.23;;;-0.60;99.90;;;;;;5036265;28;20029;-74
2023/01/21 00:17:10;;;;;;;85.63;41.37;;;-0.60;99.90;;;;;;5040099;28;20044;-73
2023/01/21 00:19:36;;;;;;;83.53;41.27;;;-0.70;99.90;;;;;;5040942;28;20037;-74
2023/01/21 00:22:03;;;;;;;89.60;45.60;;;-0.70;99.90;;;;;;5018571;28;20507;-73
2023/01/21 00:24:29;;;;;;;94.13;45.57;;;-0.70;99.90;;;;;;5036229;28;20500;-74
2023/01/21 00:26:56;;;;;;;82.63;42.37;;;-0.70;99.90;;;;;;5040920;28;20396;-74
2023/01/21 00:29:22;;;;;;;83.63;41.70;;;-0.70;99.90;;;;;;5040097;28;20033;-74
2023/01/21 00:31:48;;;;;;;76.37;38.23;;;-0.70;99.90;;;;;;5036319;28;20032;-74
2023/01/21 00:34:14;;;;;;;74.87;39.10;;;-0.70;99.90;;;;;;5017668;28;20029;-73
2023/01/21 00:36:41;;;;;;;81.80;40.77;;;-0.70;99.90;;;;;;5040536;28;20045;-73
2023/01/21 00:39:07;;;;;;;79.03;38.97;;;-0.70;99.90;;;;;;5036878;28;20060;-74
2023/01/21 00:41:33;;;;;;;83.97;43.20;;;-0.80;99.90;;;;;;5034602;28;20037;-74
2023/01/21 00:44:00;;;;;;;83.13;40.83;;;-0.80;99.90;;;;;;5038044;28;20052;-75
2023/01/21 00:46:27;;;;;;;90.17;43.83;;;-0.80;99.90;;;;;;5043493;28;20036;-74
2023/01/21 00:48:54;;;;;;;78.03;39.60;;;-0.80;99.90;;;;;;5042184;28;20044;-75
2023/01/21 00:51:22;;;;;;;83.43;40.63;;;-0.80;99.90;;;;;;5023397;28;20033;-73
2023/01/21 00:53:48;;;;;;;80.77;37.47;;;-0.80;99.90;;;;;;5038164;28;20028;-74
2023/01/21 00:56:14;;;;;;;88.30;44.47;;;-0.80;99.90;;;;;;5044032;28;20213;-74
2023/01/21 00:58:42;;;;;;;76.47;38.40;;;-0.80;99.90;;;;;;5028522;28;20048;-74
2023/01/21 01:01:11;;;;;;;80.93;39.47;;;-0.80;99.90;;;;;;5043512;28;20044;-74
2023/01/21 01:03:39;;;;;;;82.47;40.57;;;-0.80;99.90;;;;;;5037468;28;20954;-73
2023/01/21 01:06:08;;;;;;;70.63;35.20;;;-0.90;99.90;;;;;;5044401;28;20407;-73
2023/01/21 01:08:35;;;;;;;70.53;35.53;;;-0.90;99.90;;;;;;5015643;28;20040;-73
2023/01/21 01:11:02;;;;;;;75.40;37.40;;;-0.90;99.90;;;;;;5027038;28;20044;-72
2023/01/21 01:13:29;;;;;;;75.07;36.83;;;-1.00;99.90;;;;;;5020023;28;20423;-73
2023/01/21 01:15:57;;;;;;;67.80;32.90;;;-1.00;99.90;;;;;;5042930;28;20384;-74
2023/01/21 01:18:25;;;;;;;68.50;34.07;;;-1.00;99.90;;;;;;5041781;28;20052;-74
2023/01/21 01:20:51;;;;;;;86.50;40.93;;;-1.00;99.90;;;;;;5044415;28;20514;-74
2023/01/21 01:23:18;;;;;;;71.80;34.90;;;-1.00;99.90;;;;;;5034437;28;20049;-73
2023/01/21 01:26:12;;;;;;;87.40;41.27;;;-1.00;99.90;;;;;;5028378;28;20055;-74
2023/01/21 01:28:39;;;;;;;73.80;36.17;;;-1.00;99.90;;;;;;5021437;28;20032;-74
2023/01/21 01:31:09;;;;;;;70.40;34.03;;;-1.00;99.90;;;;;;5023739;28;20248;-73
2023/01/21 01:33:35;;;;;;;82.70;38.67;;;-1.00;99.90;;;;;;5038578;28;20108;-74
2023/01/21 01:36:11;;;;;;;88.77;40.90;;;-0.90;99.90;;;;;;5025893;28;20040;-73
2023/01/21 01:38:38;;;;;;;84.80;37.90;;;-0.70;99.90;;;;;;5046827;28;20032;-73
2023/01/21 01:41:04;;;;;;;76.77;35.80;;;-0.60;99.90;;;;;;5040555;28;20036;-73
2023/01/21 01:43:52;;;;;;;92.07;41.10;;;-0.50;99.90;;;;;;5037468;28;20037;-73
2023/01/21 01:46:19;;;;;;;85.13;40.23;;;-0.50;99.90;;;;;;5043087;28;20033;-73
2023/01/21 01:49:07;;;;;;;78.43;38.33;;;-0.50;99.90;;;;;;5023774;28;20478;-73
2023/01/21 01:51:42;;;;;;;80.07;38.07;;;-0.50;99.90;;;;;;5020644;28;20055;-72
2023/01/21 01:54:12;;;;;;;83.07;38.47;;;-0.50;99.90;;;;;;5035488;28;20523;-73
2023/01/21 01:56:42;;;;;;;99.90;44.23;;;-0.60;99.90;;;;;;5041423;28;20033;-73
2023/01/21 01:59:09;;;;;;;77.43;35.47;;;-0.60;99.90;;;;;;5018835;28;20052;-73
2023/01/21 02:01:36;;;;;;;85.37;39.03;;;-0.70;99.90;;;;;;5037986;28;20037;-73
2023/01/21 02:04:07;;;;;;;72.63;34.00;;;-0.70;99.90;;;;;;5034101;28;20056;-73
2023/01/21 02:06:34;;;;;;;68.27;32.33;;;-0.80;99.90;;;;;;5040990;28;20513;-73
2023/01/21 02:09:00;;;;;;;75.97;36.80;;;-0.90;99.90;;;;;;5024386;28;20495;-73
2023/01/21 02:11:27;;;;;;;89.50;39.17;;;-1.00;99.90;;;;;;5038318;28;20036;-73
2023/01/21 02:13:56;;;;;;;74.27;34.50;;;-1.00;99.90;;;;;;5019568;28;20400;-75
2023/01/21 02:16:45;;;;;;;81.30;35.83;;;-1.10;99.90;;;;;;5044470;28;20041;-73
2023/01/21 02:19:30;;;;;;;77.13;35.97;;;-1.10;99.90;;;;;;5042297;28;20052;-73
2023/01/21 02:22:26;;;;;;;72.43;34.90;;;-1.20;99.90;;;;;;5038501;28;20026;-73
2023/01/21 02:25:04;;;;;;;73.20;33.40;;;-1.20;99.90;;;;;;5020185;28;20041;-73
2023/01/21 02:27:57;;;;;;;96.53;40.17;;;-1.20;99.90;;;;;;5025035;28;20029;-74
2023/01/21 02:30:52;;;;;;;91.70;41.23;;;-1.20;99.90;;;;;;5042461;28;20041;-74
2023/01/21 02:33:54;;;;;;;91.23;39.03;;;-1.20;99.90;;;;;;5016551;28;20041;-73
2023/01/21 02:36:40;;;;;;;76.40;33.38;;;-1.20;99.90;;;;;;5039246;28;20045;-74
2023/01/21 02:39:09;;;;;;;77.43;34.13;;;-1.30;99.90;;;;;;5023350;28;20128;-74
2023/01/21 02:41:51;;;;;;;86.37;37.57;;;-1.30;99.90;;;;;;5005591;28;20377;-73
2023/01/21 02:44:31;;;;;;;63.20;31.08;;;-1.30;99.90;;;;;;5036950;28;20037;-75
2023/01/21 02:47:26;;;;;;;85.30;35.93;;;-1.30;99.90;;;;;;5037655;28;20035;-75
2023/01/21 02:50:10;;;;;;;81.73;37.57;;;-1.30;99.90;;;;;;5009238;28;20042;-74
2023/01/21 02:52:36;;;;;;;96.10;41.23;;;-1.30;99.90;;;;;;5038313;28;20040;-74
2023/01/21 02:55:03;;;;;;;90.63;40.53;;;-1.30;99.90;;;;;;5034474;28;20472;-75
2023/01/21 02:57:46;;;;;;;84.90;37.83;;;-1.30;99.90;;;;;;5028747;28;20052;-74
2023/01/21 03:00:25;;;;;;;98.37;42.00;;;-1.30;99.90;;;;;;5022600;28;20028;-75
2023/01/21 03:03:12;;;;;;;87.47;38.03;;;-1.30;99.90;;;;;;5036819;28;20042;-74
2023/01/21 03:06:05;;;;;;;86.87;38.67;;;-1.30;99.90;;;;;;5039393;28;20037;-73
2023/01/21 03:08:41;;;;;;;80.33;37.23;;;-1.30;99.90;;;;;;5026954;28;20047;-74
2023/01/21 03:11:19;;;;;;;104.87;41.93;;;-1.30;99.90;;;;;;5037276;28;20052;-74
2023/01/21 03:16:57;;;;;;;90.90;38.23;;;-1.40;99.90;;;;;;5040189;28;20037;-74
2023/01/21 03:19:54;;;;;;;83.43;34.60;;;-1.40;99.90;;;;;;5022848;28;20037;-74
2023/01/21 03:22:26;;;;;;;76.53;32.47;;;-1.40;99.90;;;;;;5006236;28;20060;-74
2023/01/21 03:24:54;;;;;;;68.05;30.02;;;-1.40;99.90;;;;;;5048553;28;20044;-74
2023/01/21 03:27:24;;;;;;;83.73;37.10;;;-1.40;99.90;;;;;;5037877;28;20036;-74
2023/01/21 03:29:56;;;;;;;74.03;33.00;;;-1.40;99.90;;;;;;5023278;28;20404;-73
2023/01/21 03:32:24;;;;;;;72.32;32.28;;;-1.40;99.90;;;;;;5004379;28;20043;-74
2023/01/21 03:34:53;;;;;;;72.23;31.67;;;-1.50;99.90;;;;;;5039236;28;20495;-73
2023/01/21 03:37:46;;;;;;;70.43;30.53;;;-1.40;99.90;;;;;;5041809;28;20029;-74
2023/01/21 03:40:23;;;;;;;86.50;35.33;;;-1.50;99.90;;;;;;5025034;28;20036;-75
2023/01/21 03:42:51;;;;;;;64.37;28.23;;;-1.40;99.90;;;;;;5022345;28;20036;-74
2023/01/21 03:45:28;;;;;;;74.03;32.70;;;-1.40;99.90;;;;;;5019987;28;20041;-74
2023/01/21 03:48:02;;;;;;;81.13;34.23;;;-1.40;99.90;;;;;;5042767;28;20041;-73
2023/01/21 03:50:43;;;;;;;85.17;36.33;;;-1.40;99.90;;;;;;5041886;28;20037;-74
2023/01/21 03:53:09;;;;;;;87.77;35.40;;;-1.40;99.90;;;;;;5018414;28;20032;-73
2023/01/21 03:55:36;;;;;;;75.40;32.23;;;-1.40;99.90;;;;;;5041028;28;20041;-73
2023/01/21 03:58:02;;;;;;;139.73;45.40;;;-1.40;99.90;;;;;;5042261;28;20040;-73
2023/01/21 04:00:28;;;;;;;93.70;38.57;;;-1.40;99.90;;;;;;5039610;28;20033;-73
2023/01/21 04:02:55;;;;;;;82.23;34.63;;;-1.40;99.90;;;;;;5021574;28;20037;-72
2023/01/21 04:05:21;;;;;;;71.93;32.30;;;-1.40;99.90;;;;;;5022915;28;20036;-73
2023/01/21 04:07:48;;;;;;;90.30;37.37;;;-1.40;99.90;;;;;;5011546;28;20101;-74
2023/01/21 04:10:15;;;;;;;73.80;32.70;;;-1.40;99.90;;;;;;5008332;28;20044;-73
2023/01/21 04:12:41;;;;;;;79.07;32.47;;;-1.40;99.90;;;;;;5010264;28;20048;-73
2023/01/21 04:15:08;;;;;;;62.30;28.17;;;-1.50;99.90;;;;;;5040067;28;20559;-72
2023/01/21 04:17:34;;;;;;;90.70;36.57;;;-1.50;99.90;;;;;;5042270;28;20040;-73
2023/01/21 04:20:01;;;;;;;103.53;40.80;;;-1.50;99.90;;;;;;5042663;28;20033;-73
2023/01/21 04:22:27;;;;;;;85.23;36.27;;;-1.50;99.90;;;;;;5045088;28;20834;-73
2023/01/21 04:24:53;;;;;;;85.17;36.20;;;-1.50;99.90;;;;;;5045834;28;20068;-73
2023/01/21 04:27:20;;;;;;;89.73;37.67;;;-1.40;99.90;;;;;;5051399;28;20028;-73
2023/01/21 04:29:46;;;;;;;80.90;34.50;;;-1.40;99.90;;;;;;5048227;28;20524;-74
2023/01/21 04:32:12;;;;;;;92.43;36.93;;;-1.40;99.90;;;;;;5040755;28;20040;-72
2023/01/21 04:34:38;;;;;;;86.27;35.77;;;-1.40;99.90;;;;;;5025084;28;20039;-73
2023/01/21 04:37:05;;;;;;;77.77;33.13;;;-1.40;99.90;;;;;;5029174;28;20036;-73
2023/01/21 04:39:31;;;;;;;74.43;30.20;;;-1.40;99.90;;;;;;5047416;28;20044;-73
2023/01/21 04:41:57;;;;;;;71.63;30.53;;;-1.50;99.90;;;;;;5040608;28;20044;-73
2023/01/21 04:44:24;;;;;;;87.13;37.47;;;-1.50;99.90;;;;;;5041221;28;20048;-74
2023/01/21 04:46:50;;;;;;;104.10;41.47;;;-1.50;99.90;;;;;;5024357;28;20032;-73
2023/01/21 04:49:16;;;;;;;93.33;37.70;;;-1.50;99.90;;;;;;5042180;28;20511;-73
2023/01/21 04:51:42;;;;;;;95.80;39.13;;;-1.50;99.90;;;;;;5037263;28;20029;-74
2023/01/21 04:54:10;;;;;;;88.60;36.07;;;-1.60;99.90;;;;;;5021543;28;20060;-74
2023/01/21 04:56:36;;;;;;;100.33;39.83;;;-1.60;99.90;;;;;;5010363;28;20033;-74
2023/01/21 04:59:03;;;;;;;80.53;33.63;;;-1.60;99.90;;;;;;5040740;28;20353;-73
2023/01/21 05:01:55;;;;;;;112.47;41.73;;;-1.60;99.90;;;;;;5038081;23;20373;31
2023/01/21 05:04:21;;;;;;;106.13;40.13;;;-1.60;99.90;;;;;;4993180;23;20058;-72
2023/01/21 05:06:55;;;;;;;111.77;40.10;;;-1.60;99.90;;;;;;5036751;22;20061;-74
2023/01/21 05:09:22;;;;;;;106.13;38.17;;;-1.60;99.90;;;;;;5018479;22;20068;-73
2023/01/21 05:11:48;;;;;;;129.73;46.00;;;-1.60;99.90;;;;;;5019167;23;20069;-72
2023/01/21 05:14:14;;;;;;;160.33;52.57;;;-1.60;99.90;;;;;;5000806;28;20495;-73
2023/01/21 05:19:38;;;;;;;144.63;45.90;;;-1.60;99.90;;;;;;4995748;28;20497;-74
2023/01/21 05:22:05;;;;;;;111.47;41.37;;;-1.60;99.90;;;;;;4980558;28;20038;-74
2023/01/21 05:24:31;;;;;;;120.40;45.33;;;-1.60;99.90;;;;;;4984234;23;20073;-74
2023/01/21 05:26:57;;;;;;;110.63;39.33;;;-1.60;99.90;;;;;;4988011;28;20045;-74
2023/01/21 05:29:23;;;;;;;137.40;46.67;;;-1.60;99.90;;;;;;5024936;28;20041;-74
2023/01/21 05:31:50;;;;;;;118.40;42.67;;;-1.60;99.90;;;;;;5014409;28;20052;-73
2023/01/21 05:34:16;;;;;;;155.40;50.03;;;-1.60;99.90;;;;;;5006156;28;20042;-74
2023/01/21 05:36:42;;;;;;;112.37;41.67;;;-1.60;99.90;;;;;;5011216;28;20468;-74
2023/01/21 05:39:09;;;;;;;131.30;43.83;;;-1.60;99.90;;;;;;5009027;28;20044;-74
2023/01/21 05:41:35;;;;;;;128.33;42.50;;;-1.60;99.90;;;;;;4993291;28;20480;-73
2023/01/21 05:44:01;;;;;;;152.33;48.13;;;-1.60;99.90;;;;;;5005135;28;20033;-74
2023/01/21 05:46:28;;;;;;;127.67;43.07;;;-1.60;99.90;;;;;;5025834;28;20408;-72
2023/01/21 05:48:54;;;;;;;140.33;44.90;;;-1.50;99.90;;;;;;5025756;28;20491;-72
2023/01/21 05:51:20;;;;;;;125.00;42.80;;;-1.50;99.90;;;;;;5022304;28;20041;-71
2023/01/21 05:53:46;;;;;;;165.30;52.73;;;-1.40;99.90;;;;;;5023422;28;20476;-73
2023/01/21 05:56:13;;;;;;;144.67;49.47;;;-1.40;99.90;;;;;;5015589;28;20751;-73
2023/01/21 05:58:39;;;;;;;170.53;55.17;;;-1.30;99.90;;;;;;5025899;28;20044;-74
2023/01/21 06:01:05;;;;;;;161.97;50.70;;;-1.30;99.90;;;;;;5025978;28;20484;-72
2023/01/21 06:03:32;;;;;;;148.17;48.57;;;-1.30;99.90;;;;;;5015898;28;20041;-72
2023/01/21 06:05:58;;;;;;;149.40;46.37;;;-1.20;99.90;;;;;;5012432;28;20040;-72
2023/01/21 06:08:24;;;;;;;162.30;49.80;;;-1.20;99.90;;;;;;5013379;28;20036;-72
2023/01/21 06:10:55;;;;;;;147.50;47.73;;;-1.10;99.90;;;;;;4996168;28;20040;-72
2023/01/21 06:13:22;;;;;;;143.83;47.80;;;-1.10;99.90;;;;;;5013113;28;20059;-72
2023/01/21 06:15:49;;;;;;;137.67;42.90;;;-1.00;99.90;;;;;;5013504;28;20492;-72
2023/01/21 06:18:15;;;;;;;148.67;47.20;;;-1.00;99.90;;;;;;5025882;28;20044;-72
2023/01/21 06:20:41;;;;;;;139.67;46.10;;;-0.90;99.90;;;;;;5009208;28;20567;-72
2023/01/21 06:23:07;;;;;;;190.97;55.43;;;-0.90;99.90;;;;;;5006280;28;20400;-72
2023/01/21 06:25:34;;;;;;;231.70;58.20;;;-0.90;99.90;;;;;;5025098;28;20051;-71
2023/01/21 06:28:00;;;;;;;129.87;40.53;;;-0.90;99.90;;;;;;5016286;28;20055;-72
2023/01/21 06:30:26;;;;;;;164.43;47.57;;;-0.90;99.90;;;;;;5009167;28;20025;-72
2023/01/21 06:32:53;;;;;;;153.83;43.43;;;-0.80;99.90;;;;;;5039901;28;20044;-72
2023/01/21 06:35:19;;;;;;;137.80;44.30;;;-0.80;99.90;;;;;;5012337;28;20542;-72
2023/01/21 06:37:45;;;;;;;160.23;47.03;;;-0.80;99.90;;;;;;5009975;28;20052;-72
2023/01/21 06:40:12;;;;;;;168.47;47.60;;;-0.80;99.90;;;;;;5010365;28;20028;-73
2023/01/21 06:42:39;;;;;;;167.93;49.73;;;-0.80;99.90;;;;;;5016179;28;20037;-72
2023/01/21 06:45:06;;;;;;;158.13;46.47;;;-0.70;99.90;;;;;;5023582;28;20567;-72
2023/01/21 06:47:33;;;;;;;150.63;41.77;;;-0.80;99.90;;;;;;5011470;28;20072;-72
2023/01/21 06:49:59;;;;;;;147.53;41.63;;;-0.70;99.90;;;;;;5009142;28;20020;-72
2023/01/21 06:52:25;;;;;;;176.53;50.43;;;-0.70;99.90;;;;;;4991548;28;20802;-72
2023/01/21 06:54:51;;;;;;;236.40;53.80;;;-0.70;99.90;;;;;;5041186;28;20475;-72
2023/01/21 06:57:18;;;;;;;211.17;53.13;;;-0.70;99.90;;;;;;5011727;28;20824;-73
2023/01/21 06:59:44;;;;;;;173.03;45.03;;;-0.70;99.90;;;;;;5035628;28;20055;-72
2023/01/21 07:02:13;;;;;;;135.77;41.07;;;-0.70;99.90;;;;;;5040763;28;20041;-72
2023/01/21 07:04:40;;;;;;;164.70;46.73;;;-0.70;99.90;;;;;;5021670;28;20045;-73
2023/01/21 07:07:06;;;;;;;147.20;41.40;;;-0.70;99.90;;;;;;5026681;28;20048;-73
2023/01/21 07:09:33;;;;;;;160.60;42.47;;;-0.70;99.90;;;;;;5024379;28;20045;-73
2023/01/21 07:11:59;;;;;;;222.00;51.80;;;-0.60;99.90;;;;;;5022643;28;20487;-72
2023/01/21 07:14:25;;;;;;;175.67;44.87;;;-0.60;99.90;;;;;;5007155;28;20047;-72
2023/01/21 07:16:52;;;;;;;165.30;45.57;;;-0.60;99.90;;;;;;5024690;28;20063;-72
2023/01/21 07:19:18;;;;;;;169.77;46.33;;;-0.60;99.90;;;;;;5047021;28;20048;-73
2023/01/21 07:21:45;;;;;;;171.57;46.17;;;-0.60;99.90;;;;;;5032999;28;20044;-73
2023/01/21 07:24:11;;;;;;;167.30;44.53;;;-0.60;99.90;;;;;;5015248;28;20083;-73
2023/01/21 07:26:37;;;;;;;169.63;45.23;;;-0.60;99.90;;;;;;5026993;28;20598;-72
2023/01/21 07:29:05;;;;;;;174.87;49.00;;;-0.60;99.90;;;;;;5010114;28;20033;-72
2023/01/21 07:31:32;;;;;;;151.43;43.13;;;-0.50;99.90;;;;;;5005652;28;20044;-71
2023/01/21 07:33:58;;;;;;;128.83;38.97;;;-0.50;99.90;;;;;;5002354;28;20447;-71
2023/01/21 07:36:25;;;;;;;172.33;48.40;;;-0.50;99.90;;;;;;5038058;28;20159;-72
2023/01/21 07:38:52;;;;;;;168.83;49.67;;;-0.50;99.90;;;;;;5026984;28;20060;-73
2023/01/21 07:41:18;;;;;;;153.87;45.60;;;-0.50;99.90;;;;;;5006761;28;20045;-72
2023/01/21 07:43:49;;;;;;;131.60;42.07;;;-0.50;99.90;;;;;;4997536;28;20041;-73
2023/01/21 07:46:17;;;;;;;142.67;44.43;;;-0.40;99.90;;;;;;5009339;28;20480;-72
2023/01/21 07:48:43;;;;;;;152.77;46.20;;;-0.40;99.90;;;;;;4998314;28;20501;-72
2023/01/21 07:51:09;;;;;;;174.10;53.10;;;-0.40;99.90;;;;;;5023398;28;20037;-72
2023/01/21 07:53:36;;;;;;;159.20;52.07;;;-0.40;99.90;;;;;;5019983;28;20558;-71
2023/01/21 07:56:04;;;;;;;147.53;46.77;;;-0.40;99.90;;;;;;5018032;28;20056;-72
2023/01/21 07:58:30;;;;;;;127.00;43.43;;;-0.30;99.90;;;;;;5032684;28;20029;-72
2023/01/21 08:00:57;;;;;;;129.37;42.03;;;-0.30;99.90;;;;;;5027084;28;20048;-71
2023/01/21 08:03:24;;;;;;;128.93;41.13;;;-0.30;99.90;;;;;;5020577;28;20043;-72
2023/01/21 08:05:51;;;;;;;123.63;37.77;;;-0.20;99.90;;;;;;5005264;23;20046;-72
2023/01/21 08:08:17;;;;;;;143.43;46.53;;;-0.20;99.90;;;;;;4969756;28;20060;-72
2023/01/21 08:10:49;;;;;;;128.20;43.57;;;-0.20;99.90;;;;;;5007142;28;20040;-72
2023/01/21 08:13:15;;;;;;;131.23;43.10;;;-0.10;99.90;;;;;;5033425;23;20069;-71
2023/01/21 08:15:42;;;;;;;144.70;47.47;;;-0.10;99.90;;;;;;5000588;28;20037;-72
2023/01/21 08:21:13;;;;;;;118.67;39.53;;;0.00;99.90;;;;;;4987797;23;20033;-72
2023/01/21 08:23:39;;;;;;;127.47;44.40;;;0.00;99.90;;;;;;5051496;23;20057;-73
2023/01/21 08:26:06;;;;;;;139.27;45.23;;;0.10;99.90;;;;;;4980840;23;20517;-73
2023/01/21 08:28:33;;;;;;;111.83;37.43;;;0.10;99.90;;;;;;4985171;28;20031;-72
2023/01/21 08:31:08;;;;;;;122.83;41.73;;;0.10;99.90;;;;;;4983390;28;20038;-73
2023/01/21 08:33:34;;;;;;;117.17;40.83;;;0.10;99.90;;;;;;4988478;28;20038;-73
2023/01/21 08:36:02;;;;;;;140.10;45.03;;;0.20;99.90;;;;;;4967414;28;20497;-73
2023/01/21 08:38:29;;;;;;;124.83;43.20;;;0.20;99.90;;;;;;4988525;28;20026;-72
2023/01/21 08:40:57;;;;;;;157.67;54.10;;;0.20;99.90;;;;;;4985440;28;20037;-73
2023/01/21 08:43:24;;;;;;;129.57;46.57;;;0.30;99.90;;;;;;4985951;28;20046;-73
2023/01/21 08:46:12;;;;;;;120.93;41.43;;;0.20;99.90;;;;;;4985849;28;20041;-73
2023/01/21 08:48:38;;;;;;;111.97;40.27;;;0.30;99.90;;;;;;4912346;29;20062;-74
2023/01/21 08:51:05;;;;;;;116.63;42.70;;;0.30;99.90;;;;;;4924757;29;20516;-74
2023/01/21 08:53:31;;;;;;;112.70;40.60;;;0.40;99.90;;;;;;4918231;29;20039;-75
2023/01/21 08:56:02;;;;;;;114.20;40.23;;;0.40;99.90;;;;;;5022921;23;20064;-74
2023/01/21 08:58:30;;;;;;;91.00;33.50;;;0.40;99.90;;;;;;4984594;28;20040;-74
2023/01/21 09:00:56;;;;;;;106.30;37.00;;;0.50;99.90;;;;;;5003248;28;20439;-73
2023/01/21 09:03:23;;;;;;;99.00;37.37;;;0.50;99.90;;;;;;5001024;28;20621;-74
2023/01/21 09:05:54;;;;;;;90.27;34.63;;;0.60;99.90;;;;;;5038868;22;20033;31
2023/01/21 09:08:21;;;;;;;103.07;37.03;;;0.60;99.90;;;;;;5017494;23;20065;-75
2023/01/21 09:11:02;;;;;;;97.80;36.60;;;0.70;99.90;;;;;;4979119;28;20037;-73
2023/01/21 09:13:30;;;;;;;102.43;38.33;;;0.70;99.90;;;;;;4989858;28;20046;-74
2023/01/21 09:15:57;;;;;;;99.30;38.13;;;0.80;99.90;;;;;;4972805;28;20034;-74
2023/01/21 09:18:24;;;;;;;94.47;36.10;;;0.80;99.90;;;;;;4984913;28;20039;-72
2023/01/21 09:20:51;;;;;;;117.07;45.23;;;0.80;99.90;;;;;;5047847;23;20062;-73
2023/01/21 09:23:23;;;;;;;105.10;41.70;;;0.90;99.90;;;;;;5007568;28;20041;-74
2023/01/21 09:25:59;;;;;;;104.47;42.30;;;0.90;99.90;;;;;;5004518;28;20285;-73
2023/01/21 09:28:26;;;;;;;102.27;39.77;;;1.00;99.90;;;;;;5001548;23;20480;-74
2023/01/21 09:30:57;;;;;;;116.37;49.17;;;1.00;99.90;;;;;;5007372;28;20041;-75
2023/01/21 09:33:25;;;;;;;105.73;39.67;;;1.00;99.90;;;;;;5016368;28;20412;-73
2023/01/21 09:39:05;;;;;;;97.03;39.97;;;1.10;99.90;;;;;;5037870;22;20053;-74
2023/01/21 09:41:57;;;;;;;95.33;39.20;;;1.10;99.90;;;;;;5118669;22;20054;-74
2023/01/21 09:44:29;;;;;;;85.10;35.10;;;1.10;99.90;;;;;;5012396;23;20061;-73
2023/01/21 09:47:11;;;;;;;91.15;39.42;;;1.20;99.90;;;;;;5001186;28;20417;-73
2023/01/21 09:49:42;;;;;;;87.77;38.33;;;1.20;99.90;;;;;;4986776;28;20037;-74
2023/01/21 09:52:39;;;;;;;87.43;36.20;;;1.30;99.90;;;;;;4996598;28;20034;-72
2023/01/21 09:58:21;;;;;;;88.33;36.93;;;1.30;99.90;;;;;;4933430;28;20071;-73
2023/01/21 10:00:51;;;;;;;89.10;37.10;;;1.40;99.90;;;;;;4903764;28;20039;-75
2023/01/21 10:03:36;;;;;;;69.90;31.13;;;1.40;99.90;;;;;;4912472;28;20442;-74
2023/01/21 10:06:41;;;;;;;80.83;36.57;;;1.50;99.90;;;;;;4922771;28;20519;-73
2023/01/21 10:09:26;;;;;;;79.63;34.20;;;1.50;99.90;;;;;;4979466;22;20054;-72
2023/01/21 10:12:11;;;;;;;85.97;36.47;;;1.50;99.90;;;;;;4980439;28;20501;-72
2023/01/21 10:24:12;;;;;;;74.63;32.43;;;1.70;99.90;;;;;;4993821;23;20457;-74
2023/01/21 10:26:41;;;;;;;70.73;32.10;;;1.80;99.90;;;;;;4990734;28;20034;-73
2023/01/21 10:29:16;;;;;;;75.77;36.00;;;1.80;99.90;;;;;;4971316;28;20054;-73
2023/01/21 10:31:49;;;;;;;86.63;35.50;;;1.80;99.90;;;;;;4983486;28;20054;-72
2023/01/21 10:34:18;;;;;;;71.80;33.73;;;1.90;99.90;;;;;;4954845;28;20042;-73
2023/01/21 10:37:22;;;;;;;70.07;31.00;;;1.90;99.90;;;;;;4968394;28;20136;-73
2023/01/21 10:40:03;;;;;;;85.97;38.13;;;1.90;99.90;;;;;;4952552;23;20059;-74
2023/01/21 10:43:04;;;;;;;77.33;35.27;;;2.00;99.90;;;;;;4960986;23;20050;-74
2023/01/21 10:45:44;;;;;;;84.43;37.50;;;2.10;99.90;;;;;;4956074;28;20066;-73
2023/01/21 10:48:31;;;;;;;79.43;34.70;;;2.20;99.90;;;;;;4944050;28;20038;-74
2023/01/21 10:51:13;;;;;;;77.17;35.40;;;2.20;99.90;;;;;;4944555;28;20402;-74
2023/01/21 10:53:59;;;;;;;80.57;34.92;;;2.40;99.90;;;;;;4939019;28;20149;-74
2023/01/21 10:57:04;;;;;;;83.90;37.63;;;2.50;99.90;;;;;;4950836;28;20041;-75
2023/01/21 10:59:34;;;;;;;76.77;35.10;;;2.50;99.90;;;;;;4932380;28;20442;-74
2023/01/21 11:02:08;;;;;;;78.93;35.87;;;2.50;99.90;;;;;;4993812;23;20728;-73
2023/01/21 11:04:50;;;;;;;74.10;33.30;;;2.50;99.90;;;;;;5045301;23;20429;-73
2023/01/21 11:07:20;;;;;;;72.03;34.58;;;2.60;99.90;;;;;;4978333;28;20508;-74
2023/01/21 11:09:47;;;;;;;77.47;37.23;;;2.60;99.90;;;;;;4966815;28;20045;-74
2023/01/21 11:12:18;;;;;;;76.37;36.27;;;2.50;99.90;;;;;;4959986;28;20498;-74
2023/01/21 11:14:53;;;;;;;66.23;32.93;;;2.50;99.90;;;;;;4977999;28;20046;-74
2023/01/21 11:17:35;;;;;;;65.97;32.13;;;2.50;99.90;;;;;;4963929;28;20039;-74
2023/01/21 11:20:14;;;;;;;61.70;30.60;;;2.60;99.90;;;;;;4980910;28;20030;-74
2023/01/21 11:22:45;;;;;;;66.32;31.38;;;2.60;99.90;;;;;;4958640;28;20414;-74
2023/01/21 11:25:42;;;;;;;71.03;34.90;;;2.60;99.90;;;;;;4948180;28;20030;-74
2023/01/21 11:28:24;;;;;;;63.10;29.33;;;2.50;99.90;;;;;;4957994;28;20057;-73
2023/01/21 11:31:23;;;;;;;61.00;29.88;;;2.40;99.90;;;;;;4958499;28;20038;-74
2023/01/21 11:33:50;;;;;;;51.00;26.57;;;2.30;99.90;;;;;;4977664;28;20061;-75
2023/01/21 11:36:19;;;;;;;59.27;28.33;;;2.30;99.90;;;;;;4951238;28;20525;-74
2023/01/21 11:39:01;;;;;;;67.60;32.53;;;2.30;99.90;;;;;;4982264;28;20034;-74
2023/01/21 11:41:27;;;;;;;60.30;30.20;;;2.30;99.90;;;;;;4957773;28;20053;-73
2023/01/21 11:44:06;;;;;;;58.70;29.43;;;2.30;99.90;;;;;;4946702;28;20054;-74
2023/01/21 11:46:40;;;;;;;49.37;27.07;;;2.30;99.90;;;;;;4964888;28;20038;-75
2023/01/21 11:49:06;;;;;;;51.93;26.07;;;2.30;99.90;;;;;;4960275;28;20037;-74
2023/01/21 11:51:38;;;;;;;48.93;24.27;;;2.30;99.90;;;;;;4959518;28;20042;-74
2023/01/21 11:54:12;;;;;;;47.93;25.13;;;2.40;99.90;;;;;;4955896;28;20053;-75
2023/01/21 11:56:51;;;;;;;48.63;24.97;;;2.50;99.90;;;;;;4963728;28;20046;-74
2023/01/21 11:59:29;;;;;;;57.13;27.50;;;2.70;99.90;;;;;;4975676;28;20030;-75
2023/01/21 12:02:04;;;;;;;53.83;27.93;;;2.80;99.90;;;;;;4961509;28;20038;-75
2023/01/21 12:04:31;;;;;;;50.40;27.70;;;2.90;99.90;;;;;;4949911;28;20078;-75
2023/01/21 12:06:59;;;;;;;47.63;25.73;;;2.90;99.90;;;;;;4960987;28;20061;-74
2023/01/21 12:09:27;;;;;;;50.72;26.45;;;2.90;99.90;;;;;;4965342;28;20030;-75
2023/01/21 12:15:30;;;;;;;52.20;26.63;;;3.10;99.90;;;;;;5070841;23;20062;-75
2023/01/21 12:18:25;;;;;;;50.92;28.92;;;3.20;99.90;;;;;;5000380;28;20073;-76
2023/01/21 12:21:36;;;;;;;47.63;25.27;;;3.30;99.90;;;;;;5020442;23;20062;-75
2023/01/21 12:24:53;;;;;;;50.35;26.42;;;3.30;99.90;;;;;;4967412;28;20244;-76
2023/01/21 12:27:32;;;;;;;44.70;25.10;;;3.30;99.90;;;;;;4968693;23;20291;-75
2023/01/21 12:30:23;;;;;;;47.67;26.92;;;3.40;99.90;;;;;;4957973;28;20061;-75
2023/01/21 12:33:39;;;;;;;51.67;28.30;;;3.50;99.90;;;;;;4962637;23;20062;-75
2023/01/21 12:36:20;;;;;;;52.57;28.33;;;3.50;99.90;;;;;;4934618;28;20053;-75
2023/01/21 12:39:13;;;;;;;47.35;27.70;;;3.40;99.90;;;;;;5023251;23;20472;-76
2023/01/21 12:41:43;;;;;;;45.35;27.33;;;3.50;99.90;;;;;;4975219;28;20057;-76
2023/01/21 12:44:41;;;;;;;45.53;25.17;;;3.50;99.90;;;;;;4965326;28;20045;-75
2023/01/21 12:47:31;;;;;;;52.63;28.58;;;3.50;99.90;;;;;;4965045;28;20046;-76
2023/01/21 12:50:27;;;;;;;46.33;26.83;;;3.60;99.90;;;;;;4983310;28;20141;-76
2023/01/21 12:53:09;;;;;;;48.20;26.25;;;3.60;99.90;;;;;;4964777;28;20050;-76
2023/01/21 12:55:55;;;;;;;42.20;23.20;;;3.70;99.90;;;;;;4957252;28;20039;-76
2023/01/21 12:58:25;;;;;;;48.05;27.63;;;3.80;99.90;;;;;;4953428;28;20038;-76
2023/01/21 13:00:52;;;;;;;44.92;25.83;;;3.80;99.90;;;;;;4971487;28;20058;-76
2023/01/21 13:03:46;;;;;;;50.65;26.98;;;3.80;99.90;;;;;;4977630;28;20065;-76
2023/01/21 13:06:36;;;;;;;44.10;25.17;;;3.70;99.90;;;;;;4969373;28;20063;-76
2023/01/21 13:09:48;;;;;;;47.92;27.27;;;3.70;99.90;;;;;;4986182;28;20042;-76
2023/01/21 13:12:25;;;;;;;44.67;26.23;;;3.60;99.90;;;;;;4959964;28;20054;-77
2023/01/21 13:15:00;;;;;;;50.08;27.42;;;3.50;99.90;;;;;;4965444;28;20034;-77
2023/01/21 13:17:36;;;;;;;42.80;24.42;;;3.40;99.90;;;;;;4971575;28;20402;-76
2023/01/21 13:20:16;;;;;;;49.28;29.05;;;3.30;99.90;;;;;;4973834;28;20107;-76
2023/01/21 13:23:19;;;;;;;46.47;26.40;;;3.40;99.90;;;;;;4952582;28;20045;-75